Verdon, Minnesota
Current Conditions -  °F | °C
As of 7:34 PM on Thursday 18 Dec 2014 (Local Time) from KAIT Reporting Station
Overcast Overcast  
Wind Chill: 21°   Ceiling: 800
Heat Index: 21°   Visibility: 10mi
Dew Point: 18°   Wind: 3mph
Humidity: 86%   Direction: 170°S
Pressure: 30.21"   Gusts: NA
Location:  46.7281°N, 93.6101°W
Report Text: KAIT 190134Z AUTO 17003KT 10SM OVC008 M06/M08 A3021 RMK AO2
Loading
Personal Weather Stations






























Interactive Weather Map New forecast layout! Learn more

10-Day Weather Forecast

Advertisements
Track Severe Weather on mobile